Time;durP1;ratioP1;P1;durP2;ratioP2;P2;SDS_P1;SDS_P2;PMS_P1;PMS_P2;Temp;Humidity;BMP_temperature;BMP_pressure;BME280_temperature;BME280_humidity;BME280_pressure;Samples;Min_cycle;Max_cycle;Signal;HPM_P1;HPM_P2
2021/09/02 00:00:06;;;;;;;2.17;2.00;;;16.10;99.90;;;;;;5059725;28;20205;-70
2021/09/02 00:02:33;;;;;;;2.00;1.90;;;16.10;99.90;;;;;;5070146;28;20213;-70
2021/09/02 00:05:01;;;;;;;2.10;1.90;;;16.10;99.90;;;;;;5070251;28;20657;-70
2021/09/02 00:07:28;;;;;;;1.67;1.57;;;16.20;99.90;;;;;;5069716;28;20197;-71
2021/09/02 00:09:55;;;;;;;1.70;1.60;;;16.20;99.90;;;;;;5060116;28;20205;-70
2021/09/02 00:12:22;;;;;;;2.33;1.80;;;16.10;99.90;;;;;;5060605;28;20211;-70
2021/09/02 00:14:49;;;;;;;2.10;1.90;;;16.20;99.90;;;;;;5062467;28;20218;-72
2021/09/02 00:17:17;;;;;;;2.70;2.50;;;16.20;99.90;;;;;;5055296;28;20217;-71
2021/09/02 00:19:44;;;;;;;2.30;2.10;;;16.20;99.90;;;;;;5065654;28;20198;-71
2021/09/02 00:22:12;;;;;;;2.30;2.10;;;16.20;99.90;;;;;;5064466;28;20197;-71
2021/09/02 00:24:39;;;;;;;2.30;2.10;;;16.40;99.90;;;;;;5055117;28;20649;-71
2021/09/02 00:27:07;;;;;;;3.00;2.50;;;16.00;99.90;;;;;;5067309;28;20319;-71
2021/09/02 00:29:34;;;;;;;3.50;2.57;;;16.20;99.90;;;;;;5066150;28;20205;-71
2021/09/02 00:32:01;;;;;;;2.60;2.40;;;16.30;99.90;;;;;;5065912;28;20224;-71
2021/09/02 00:34:28;;;;;;;2.73;2.53;;;16.30;99.90;;;;;;5061376;28;20224;-70
2021/09/02 00:36:55;;;;;;;3.00;2.70;;;16.30;99.90;;;;;;5062364;28;20668;-71
2021/09/02 00:39:24;;;;;;;2.30;2.20;;;16.30;99.90;;;;;;5064607;28;20209;-71
2021/09/02 00:41:51;;;;;;;2.93;2.57;;;16.30;99.90;;;;;;5068646;28;20680;-71
2021/09/02 00:44:33;;;;;;;2.33;2.13;;;16.30;99.90;;;;;;5063590;28;20641;-71
2021/09/02 00:47:01;;;;;;;2.70;2.27;;;16.40;99.90;;;;;;5062747;28;20292;-71
2021/09/02 00:49:29;;;;;;;2.57;2.37;;;16.40;99.90;;;;;;5051131;28;20200;-72
2021/09/02 00:51:56;;;;;;;2.50;2.30;;;16.40;99.90;;;;;;5050757;28;20573;-71
2021/09/02 00:54:24;;;;;;;2.30;2.20;;;16.40;99.90;;;;;;5061657;28;20662;-72
2021/09/02 00:56:51;;;;;;;2.90;2.27;;;16.40;99.90;;;;;;5068434;28;20235;-72
2021/09/02 00:59:18;;;;;;;2.23;2.00;;;16.40;99.90;;;;;;5068888;28;20645;-72
2021/09/02 01:01:45;;;;;;;3.30;3.00;;;16.40;99.90;;;;;;5057125;28;20190;-72
2021/09/02 01:04:12;;;;;;;2.13;2.03;;;16.50;99.90;;;;;;5063431;28;20197;-71
2021/09/02 01:06:40;;;;;;;2.50;2.30;;;16.50;99.90;;;;;;5061617;28;20194;-72
2021/09/02 01:09:07;;;;;;;3.83;2.30;;;16.50;99.90;;;;;;5054152;28;20199;-72
2021/09/02 01:11:35;;;;;;;2.63;2.30;;;16.50;99.90;;;;;;5067177;28;20201;-72
2021/09/02 01:14:02;;;;;;;4.93;2.73;;;16.50;99.90;;;;;;5059131;28;20612;-72
2021/09/02 01:16:29;;;;;;;2.80;2.60;;;16.50;99.90;;;;;;5053738;28;20304;-72
2021/09/02 01:18:56;;;;;;;2.47;2.27;;;16.50;99.90;;;;;;5051128;28;20194;-72
2021/09/02 01:21:23;;;;;;;3.07;2.00;;;16.50;99.90;;;;;;5058093;28;20203;-72
2021/09/02 01:23:52;;;;;;;2.10;1.90;;;16.50;99.90;;;;;;5058969;28;20196;-72
2021/09/02 01:26:20;;;;;;;2.47;2.27;;;16.60;99.90;;;;;;5064382;28;20217;-72
2021/09/02 01:28:48;;;;;;;2.73;2.20;;;16.70;99.90;;;;;;5068360;28;20217;-72
2021/09/02 01:31:15;;;;;;;2.03;1.93;;;16.20;99.90;;;;;;5066238;28;20344;-72
2021/09/02 01:33:46;;;;;;;2.20;2.10;;;16.50;99.90;;;;;;5066117;28;20803;-72
2021/09/02 01:36:13;;;;;;;2.90;2.60;;;16.60;99.90;;;;;;5054603;28;20693;-72
2021/09/02 01:38:40;;;;;;;2.20;2.07;;;16.50;99.90;;;;;;5067682;28;20186;-72
2021/09/02 01:41:09;;;;;;;2.70;2.50;;;16.50;99.90;;;;;;5054456;28;20255;-72
2021/09/02 01:43:36;;;;;;;2.63;2.03;;;16.50;99.90;;;;;;5063641;28;20279;-71
2021/09/02 01:46:03;;;;;;;2.20;2.00;;;16.60;99.90;;;;;;5065264;28;20204;-72
2021/09/02 01:48:33;;;;;;;2.30;2.10;;;16.60;99.90;;;;;;5059176;28;20638;-72
2021/09/02 01:51:01;;;;;;;3.40;2.37;;;16.80;99.90;;;;;;5063937;28;20546;-72
2021/09/02 01:53:28;;;;;;;2.10;1.93;;;16.60;99.90;;;;;;5067261;28;20645;-72
2021/09/02 01:55:56;;;;;;;2.63;1.93;;;16.60;99.90;;;;;;5066534;28;20197;-72
2021/09/02 01:58:24;;;;;;;1.83;1.73;;;16.60;99.90;;;;;;5067155;28;20210;-71
2021/09/02 02:00:51;;;;;;;2.03;1.93;;;16.70;99.90;;;;;;5060670;28;20282;-72
2021/09/02 02:03:19;;;;;;;1.60;1.50;;;16.70;99.90;;;;;;5064568;28;20530;-72
2021/09/02 02:05:46;;;;;;;1.70;1.60;;;16.70;99.90;;;;;;5065763;28;20654;-72
2021/09/02 02:08:17;;;;;;;4.40;2.03;;;16.70;99.90;;;;;;5066979;28;20206;-72
2021/09/02 02:10:44;;;;;;;2.30;1.93;;;16.70;99.90;;;;;;5060404;28;20770;-71
2021/09/02 02:13:11;;;;;;;2.53;2.33;;;16.70;99.90;;;;;;5062784;28;20231;-71
2021/09/02 02:15:40;;;;;;;1.93;1.83;;;16.90;99.90;;;;;;5067052;28;20694;-71
2021/09/02 02:18:07;;;;;;;2.27;2.07;;;16.70;99.90;;;;;;5065985;28;20210;-71
2021/09/02 02:20:34;;;;;;;1.80;1.70;;;16.70;99.90;;;;;;5065596;28;20206;-71
2021/09/02 02:23:01;;;;;;;1.70;1.60;;;16.70;99.90;;;;;;5063780;28;20207;-72
2021/09/02 02:25:28;;;;;;;1.90;1.80;;;16.40;99.90;;;;;;5058662;28;20186;-72
2021/09/02 02:27:56;;;;;;;2.10;1.90;;;16.70;99.90;;;;;;5065774;28;20198;-72
2021/09/02 02:30:23;;;;;;;1.73;1.63;;;16.80;99.90;;;;;;5067024;28;20225;-71
2021/09/02 02:32:53;;;;;;;1.97;1.87;;;16.80;99.90;;;;;;5066768;28;20542;-71
2021/09/02 02:35:21;;;;;;;1.67;1.57;;;16.80;99.90;;;;;;5063481;28;20312;-71
2021/09/02 02:37:49;;;;;;;1.60;1.50;;;16.80;99.90;;;;;;5059669;28;20200;-72
2021/09/02 02:40:17;;;;;;;2.30;2.10;;;16.80;99.90;;;;;;5057370;28;20195;-71
2021/09/02 02:42:45;;;;;;;2.60;2.30;;;16.90;99.90;;;;;;5061214;28;20217;-72
2021/09/02 02:45:13;;;;;;;4.37;2.20;;;16.50;99.90;;;;;;5061907;28;20215;-72
2021/09/02 02:47:40;;;;;;;2.13;1.97;;;16.80;99.90;;;;;;5059242;28;20212;-72
2021/09/02 02:50:09;;;;;;;2.70;2.50;;;16.90;99.90;;;;;;5057273;28;20207;-72
2021/09/02 02:52:36;;;;;;;2.00;1.90;;;16.90;99.90;;;;;;5061757;28;20297;-72
2021/09/02 02:55:04;;;;;;;1.80;1.70;;;16.90;99.90;;;;;;5058909;28;20756;-72
2021/09/02 02:57:31;;;;;;;1.70;1.60;;;16.90;99.90;;;;;;5064743;28;20200;-72
2021/09/02 02:59:58;;;;;;;1.83;1.73;;;16.90;99.90;;;;;;5068890;28;20217;-72
2021/09/02 03:02:25;;;;;;;3.50;2.20;;;16.90;99.90;;;;;;5058911;28;20198;-71
2021/09/02 03:04:52;;;;;;;2.43;2.23;;;16.90;99.90;;;;;;5070005;28;20215;-71
2021/09/02 03:07:20;;;;;;;2.30;2.10;;;16.90;99.90;;;;;;5071520;28;20199;-71
2021/09/02 03:09:47;;;;;;;2.17;1.73;;;16.90;99.90;;;;;;5060008;28;20739;-73
2021/09/02 03:12:14;;;;;;;2.07;1.90;;;16.90;99.90;;;;;;5065334;28;20289;-71
2021/09/02 03:14:41;;;;;;;1.93;1.83;;;16.90;99.90;;;;;;5070532;28;20252;-71
2021/09/02 03:17:08;;;;;;;1.77;1.67;;;16.80;99.90;;;;;;5071115;28;20201;-71
2021/09/02 03:19:35;;;;;;;2.10;1.90;;;16.80;99.90;;;;;;5070985;28;20261;-71
2021/09/02 03:22:03;;;;;;;2.10;1.90;;;16.90;99.90;;;;;;5068646;28;20205;-71
2021/09/02 03:24:31;;;;;;;1.67;1.57;;;16.80;99.90;;;;;;5057980;28;20674;-72
2021/09/02 03:26:58;;;;;;;1.90;1.80;;;16.80;99.90;;;;;;5070244;28;20199;-71
2021/09/02 03:29:25;;;;;;;1.60;1.50;;;16.80;99.90;;;;;;5070093;28;20545;-72
2021/09/02 03:31:52;;;;;;;1.73;1.63;;;16.90;99.90;;;;;;5067809;28;20222;-72
2021/09/02 03:34:19;;;;;;;1.90;1.80;;;16.90;99.90;;;;;;5064793;28;20218;-72
2021/09/02 03:36:46;;;;;;;1.90;1.80;;;16.80;99.90;;;;;;5069646;28;20196;-71
2021/09/02 03:39:13;;;;;;;1.80;1.70;;;16.80;99.90;;;;;;5055886;28;20211;-71
2021/09/02 03:41:42;;;;;;;2.57;2.07;;;16.80;99.90;;;;;;5069265;28;20201;-70
2021/09/02 03:44:10;;;;;;;1.70;1.60;;;16.80;99.90;;;;;;5067122;28;20199;-71
2021/09/02 03:46:37;;;;;;;2.20;2.10;;;16.80;99.90;;;;;;5065779;28;20203;-71
2021/09/02 03:49:05;;;;;;;1.80;1.70;;;16.80;99.90;;;;;;5053365;28;20212;-71
2021/09/02 03:51:32;;;;;;;2.17;2.00;;;16.80;99.90;;;;;;5064824;28;20202;-71
2021/09/02 03:53:59;;;;;;;1.87;1.77;;;16.80;99.90;;;;;;5058573;28;20241;-71
2021/09/02 03:56:26;;;;;;;2.50;2.07;;;16.80;99.90;;;;;;5067433;28;20214;-72
2021/09/02 03:58:54;;;;;;;2.40;2.20;;;16.80;99.90;;;;;;5064978;28;20624;-72
2021/09/02 04:01:22;;;;;;;2.13;1.97;;;16.80;99.90;;;;;;5063594;28;20202;-72
2021/09/02 04:03:49;;;;;;;2.47;2.28;;;16.80;99.90;;;;;;5064439;28;20193;-72
2021/09/02 04:06:16;;;;;;;2.47;2.28;;;16.80;99.90;;;;;;5064682;28;20198;-70
2021/09/02 04:08:43;;;;;;;1.97;1.87;;;16.80;99.90;;;;;;5057178;28;20201;-72
2021/09/02 04:11:10;;;;;;;2.60;2.10;;;16.80;99.90;;;;;;5068190;28;20206;-72
2021/09/02 04:13:37;;;;;;;3.50;1.93;;;16.80;99.90;;;;;;5056165;28;20226;-72
2021/09/02 04:16:06;;;;;;;2.70;2.47;;;17.10;99.90;;;;;;5060065;28;20312;-72
2021/09/02 04:18:33;;;;;;;2.40;2.20;;;16.80;99.90;;;;;;5065725;28;20226;-71
2021/09/02 04:21:04;;;;;;;3.07;2.40;;;16.80;99.90;;;;;;5068737;28;20690;-71
2021/09/02 04:23:31;;;;;;;2.20;2.00;;;16.80;99.90;;;;;;5062129;28;20236;-70
2021/09/02 04:25:58;;;;;;;2.10;2.00;;;16.80;99.90;;;;;;5062193;28;20210;-71
2021/09/02 04:28:25;;;;;;;2.30;2.10;;;16.80;99.90;;;;;;5070033;28;20672;-72
2021/09/02 04:30:52;;;;;;;2.73;2.53;;;16.80;99.90;;;;;;5068110;28;20530;-72
2021/09/02 04:33:20;;;;;;;3.87;2.97;;;16.80;99.90;;;;;;5069088;28;20205;-72
2021/09/02 04:35:47;;;;;;;3.17;2.73;;;16.80;99.90;;;;;;5064695;28;20233;-72
2021/09/02 04:38:18;;;;;;;2.73;2.53;;;16.80;99.90;;;;;;5069608;28;20204;-71
2021/09/02 04:40:45;;;;;;;2.23;2.03;;;16.80;99.90;;;;;;5067561;28;20673;-71
2021/09/02 04:43:12;;;;;;;1.83;1.73;;;16.90;99.90;;;;;;5067106;28;20367;-72
2021/09/02 04:45:39;;;;;;;3.60;1.80;;;16.80;99.90;;;;;;5067239;28;20209;-72
2021/09/02 04:48:14;;;;;;;2.50;2.30;;;16.80;99.90;;;;;;5053674;28;20665;-71
2021/09/02 04:50:43;;;;;;;2.40;2.00;;;16.80;99.90;;;;;;5066895;28;20200;-71
2021/09/02 04:53:10;;;;;;;2.87;2.27;;;16.80;99.90;;;;;;5068645;28;20189;-72
2021/09/02 04:55:38;;;;;;;3.33;2.87;;;16.80;99.90;;;;;;5067287;28;20229;-71
2021/09/02 04:58:05;;;;;;;4.23;3.20;;;16.80;99.90;;;;;;5068805;28;20215;-72
2021/09/02 05:00:32;;;;;;;3.57;3.13;;;16.40;99.90;;;;;;5061677;28;20198;-72
2021/09/02 05:02:59;;;;;;;4.17;2.70;;;16.70;99.90;;;;;;5068040;28;20741;-72
2021/09/02 05:05:26;;;;;;;3.50;3.10;;;16.70;99.90;;;;;;5068835;28;20219;-72
2021/09/02 05:07:55;;;;;;;7.03;3.17;;;16.70;99.90;;;;;;5062598;28;20240;-70
2021/09/02 05:10:22;;;;;;;2.90;2.60;;;16.70;99.90;;;;;;5068441;28;20331;-71
2021/09/02 05:12:50;;;;;;;4.37;2.93;;;16.70;99.90;;;;;;5056992;28;20281;-72
2021/09/02 05:15:17;;;;;;;3.30;2.90;;;16.70;99.90;;;;;;5068336;28;20217;-71
2021/09/02 05:17:45;;;;;;;3.90;2.80;;;16.70;99.90;;;;;;5063096;28;20202;-71
2021/09/02 05:20:12;;;;;;;2.60;2.40;;;16.80;99.90;;;;;;5067630;28;20673;-72
2021/09/02 05:22:40;;;;;;;3.63;2.87;;;16.80;99.90;;;;;;5067395;28;20286;-72
2021/09/02 05:25:10;;;;;;;2.40;2.20;;;16.90;99.90;;;;;;5056224;28;20631;-71
2021/09/02 05:27:38;;;;;;;2.50;2.30;;;17.00;99.90;;;;;;5066058;28;20938;-72
2021/09/02 05:30:08;;;;;;;3.07;2.70;;;17.00;99.90;;;;;;5068893;28;20195;-72
2021/09/02 05:32:35;;;;;;;4.87;3.03;;;17.10;99.90;;;;;;5065430;28;20203;-72
2021/09/02 05:35:02;;;;;;;5.23;3.63;;;17.10;99.90;;;;;;5063451;28;20555;-72
2021/09/02 05:37:29;;;;;;;3.40;3.10;;;17.10;99.90;;;;;;5066555;28;20270;-72
2021/09/02 05:39:56;;;;;;;5.77;3.70;;;17.10;99.90;;;;;;5067921;28;20213;-72
2021/09/02 05:42:25;;;;;;;4.60;3.30;;;17.10;99.90;;;;;;5067443;28;20557;-73
2021/09/02 05:44:52;;;;;;;4.13;2.90;;;17.10;99.90;;;;;;5068004;28;20205;-72
2021/09/02 05:47:19;;;;;;;7.03;3.43;;;17.10;99.90;;;;;;5057889;28;20207;-72
2021/09/02 05:49:46;;;;;;;4.00;3.40;;;17.10;99.90;;;;;;5056686;28;20222;-72
2021/09/02 05:52:13;;;;;;;4.17;2.90;;;17.20;99.90;;;;;;5053334;28;20537;-72
2021/09/02 05:54:40;;;;;;;3.27;2.67;;;17.30;99.90;;;;;;5057834;28;20205;-73
2021/09/02 05:57:07;;;;;;;3.65;2.67;;;18.00;99.90;;;;;;5052809;28;20195;-73
2021/09/02 05:59:36;;;;;;;2.97;2.75;;;19.00;99.90;;;;;;5048488;28;20657;-72
2021/09/02 06:02:03;;;;;;;4.57;3.13;;;19.80;99.90;;;;;;5053890;28;20205;-72
2021/09/02 06:04:30;;;;;;;4.35;2.92;;;20.30;99.90;;;;;;5056608;28;20595;-71
2021/09/02 06:06:57;;;;;;;5.45;3.10;;;20.30;99.90;;;;;;5062781;28;20189;-72
2021/09/02 06:09:24;;;;;;;3.38;2.90;;;20.30;99.90;;;;;;5056108;28;20189;-72
2021/09/02 06:11:51;;;;;;;6.03;3.00;;;20.20;99.90;;;;;;5057774;28;20212;-72
2021/09/02 06:14:18;;;;;;;3.70;3.25;;;20.20;99.90;;;;;;5057614;28;20316;-72
2021/09/02 06:16:46;;;;;;;4.55;3.45;;;20.10;99.90;;;;;;5063250;28;20224;-72
2021/09/02 06:19:13;;;;;;;4.53;3.00;;;20.10;99.90;;;;;;5051819;28;20193;-72
2021/09/02 06:21:42;;;;;;;3.67;3.30;;;20.20;99.90;;;;;;5060116;28;20205;-71
2021/09/02 06:24:09;;;;;;;3.85;2.92;;;20.40;99.90;;;;;;5060663;28;20833;-71
2021/09/02 06:26:37;;;;;;;4.50;3.10;;;20.60;99.90;;;;;;5065978;28;20201;-71
2021/09/02 06:29:04;;;;;;;4.32;2.60;;;20.80;99.90;;;;;;5066888;28;20193;-71
2021/09/02 06:31:31;;;;;;;3.97;2.85;;;21.10;99.90;;;;;;5065374;28;20292;-72
2021/09/02 06:33:59;;;;;;;5.07;2.95;;;21.30;99.90;;;;;;5066504;28;20641;-72
2021/09/02 06:36:26;;;;;;;5.90;2.92;;;21.50;99.90;;;;;;5066100;28;20225;-72
2021/09/02 06:38:54;;;;;;;3.97;2.90;;;21.60;99.90;;;;;;5064879;28;20198;-72
2021/09/02 06:41:21;;;;;;;5.13;2.70;;;21.80;99.90;;;;;;5061171;28;20198;-71
2021/09/02 06:43:48;;;;;;;6.25;2.65;;;21.90;99.90;;;;;;5078433;28;20240;-71
2021/09/02 06:46:16;;;;;;;3.75;2.38;;;22.10;99.90;;;;;;5074986;28;20193;-71
2021/09/02 06:48:43;;;;;;;3.25;2.50;;;22.40;99.90;;;;;;5062306;28;20194;-71
2021/09/02 06:51:12;;;;;;;2.88;2.47;;;22.80;99.90;;;;;;5073357;28;20633;-71
2021/09/02 06:53:39;;;;;;;2.70;2.47;;;23.10;99.90;;;;;;5059996;28;20198;-71
2021/09/02 06:56:06;;;;;;;3.28;2.13;;;23.30;99.50;;;;;;5052934;28;20225;-71
2021/09/02 06:58:34;;;;;;;5.32;2.40;;;23.40;97.90;;;;;;5075693;28;20205;-72
2021/09/02 07:01:00;;;;;;;2.90;1.98;;;23.50;95.80;;;;;;5060349;28;20193;-71
2021/09/02 07:03:27;;;;;;;4.18;2.20;;;23.50;93.90;;;;;;5054920;28;20216;-71
2021/09/02 07:05:55;;;;;;;2.90;2.13;;;23.40;92.90;;;;;;5056016;28;20926;-72
2021/09/02 07:08:24;;;;;;;5.15;2.25;;;23.40;92.50;;;;;;5075105;28;20209;-71
2021/09/02 07:10:51;;;;;;;9.35;2.55;;;23.40;92.50;;;;;;5054857;28;20442;-71
2021/09/02 07:13:18;;;;;;;2.38;2.00;;;23.50;91.80;;;;;;5058470;28;20702;-71
2021/09/02 07:15:45;;;;;;;3.72;2.05;;;23.50;90.30;;;;;;5076018;28;20217;-71
2021/09/02 07:18:12;;;;;;;2.03;1.75;;;23.50;90.20;;;;;;5055547;28;20194;-72
2021/09/02 07:20:39;;;;;;;2.10;1.73;;;23.60;88.50;;;;;;5063384;28;20691;-71
2021/09/02 07:23:06;;;;;;;5.20;2.15;;;23.60;82.80;;;;;;5058460;28;20194;-71
2021/09/02 07:25:34;;;;;;;4.15;1.42;;;23.60;80.30;;;;;;5064738;28;20283;-71
2021/09/02 07:28:01;;;;;;;4.07;1.35;;;23.60;76.10;;;;;;5065355;28;20212;-72
2021/09/02 07:30:28;;;;;;;4.65;1.55;;;23.40;73.60;;;;;;5066735;28;20337;-71
2021/09/02 07:32:55;;;;;;;1.60;1.50;;;23.50;74.90;;;;;;5065292;28;20194;-72
2021/09/02 07:35:23;;;;;;;1.85;1.75;;;23.70;75.40;;;;;;5065528;28;20266;-71
2021/09/02 07:37:50;;;;;;;2.15;1.60;;;24.10;77.10;;;;;;5061340;28;20189;-72
2021/09/02 07:40:17;;;;;;;2.67;1.73;;;25.30;75.40;;;;;;5064588;28;20201;-72
2021/09/02 07:42:45;;;;;;;6.45;1.60;;;26.20;70.30;;;;;;5056966;28;20198;-71
2021/09/02 07:45:12;;;;;;;2.00;1.77;;;27.00;68.40;;;;;;5063851;28;20641;-71
2021/09/02 07:47:39;;;;;;;1.90;1.65;;;28.10;65.30;;;;;;5062011;28;20194;-72
2021/09/02 07:50:08;;;;;;;1.30;1.17;;;28.90;59.80;;;;;;5059542;28;20672;-72
2021/09/02 07:52:36;;;;;;;4.68;1.35;;;29.50;57.90;;;;;;5057777;28;20193;-71
2021/09/02 07:55:04;;;;;;;1.83;1.40;;;30.60;56.60;;;;;;5064875;28;20201;-71
2021/09/02 07:57:31;;;;;;;2.25;1.42;;;31.40;55.00;;;;;;5060874;28;20601;-71
2021/09/02 07:59:59;;;;;;;3.25;1.63;;;32.10;52.20;;;;;;5064419;28;20308;-72
2021/09/02 08:02:26;;;;;;;2.03;1.60;;;32.60;49.50;;;;;;5065876;28;20628;-71
2021/09/02 08:04:53;;;;;;;2.08;1.70;;;33.00;47.60;;;;;;5060354;28;20506;-72
2021/09/02 08:07:20;;;;;;;3.38;1.90;;;32.90;45.50;;;;;;5064418;28;20662;-74
2021/09/02 08:09:47;;;;;;;2.22;1.38;;;32.80;44.10;;;;;;5056528;28;20786;-70
2021/09/02 08:12:14;;;;;;;1.58;1.48;;;32.50;43.80;;;;;;5064520;28;20216;-71
2021/09/02 08:14:41;;;;;;;2.20;1.65;;;33.10;43.90;;;;;;5053694;28;20704;-70
2021/09/02 08:17:10;;;;;;;5.68;2.00;;;34.40;42.50;;;;;;5061515;28;20216;-71
2021/09/02 08:19:37;;;;;;;4.00;2.00;;;35.70;40.50;;;;;;5053184;28;20197;-71
2021/09/02 08:22:04;;;;;;;2.78;2.25;;;36.60;38.60;;;;;;5066083;28;20201;-71
2021/09/02 08:24:31;;;;;;;1.98;1.60;;;37.10;37.10;;;;;;5055018;28;20193;-71
2021/09/02 08:26:58;;;;;;;6.32;2.20;;;37.20;36.20;;;;;;5058335;28;20198;-71
2021/09/02 08:29:25;;;;;;;2.10;1.90;;;37.40;34.70;;;;;;5054078;28;20815;-70
2021/09/02 08:31:52;;;;;;;3.78;2.15;;;37.50;35.10;;;;;;5059778;28;20198;-70
2021/09/02 08:34:21;;;;;;;4.88;2.35;;;37.80;34.90;;;;;;5055075;28;20839;-70
2021/09/02 08:36:47;;;;;;;2.03;1.88;;;37.80;34.00;;;;;;5062320;28;20445;-71
2021/09/02 08:39:14;;;;;;;2.28;2.08;;;38.00;33.00;;;;;;5061822;28;20197;-70
2021/09/02 08:41:42;;;;;;;8.35;2.22;;;38.10;32.80;;;;;;5061038;28;20437;-70
2021/09/02 08:44:10;;;;;;;4.32;2.65;;;38.00;32.40;;;;;;5060585;28;20562;-70
2021/09/02 08:46:37;;;;;;;5.82;2.35;;;38.20;31.90;;;;;;5055176;28;20227;-70
2021/09/02 08:49:05;;;;;;;3.65;2.03;;;38.30;31.80;;;;;;5059548;28;20189;-71
2021/09/02 08:51:35;;;;;;;3.97;2.30;;;38.20;31.60;;;;;;5056776;28;20217;-70
2021/09/02 08:54:02;;;;;;;2.97;2.15;;;37.90;31.90;;;;;;5056628;28;20224;-70
2021/09/02 08:56:30;;;;;;;2.80;2.05;;;38.10;32.40;;;;;;5055037;28;20908;-70
2021/09/02 08:58:57;;;;;;;5.55;2.17;;;37.90;31.90;;;;;;5074917;28;20233;-70
2021/09/02 09:01:24;;;;;;;2.72;1.98;;;38.00;31.40;;;;;;5058965;28;20285;-70
2021/09/02 09:03:52;;;;;;;2.78;1.98;;;37.80;31.50;;;;;;5060710;28;20646;-71
2021/09/02 09:06:24;;;;;;;3.88;2.25;;;37.70;31.90;;;;;;5053378;28;20279;-71
2021/09/02 09:08:52;;;;;;;4.50;2.17;;;37.40;32.10;;;;;;5048769;28;20399;-71
2021/09/02 09:11:21;;;;;;;2.35;2.20;;;37.70;32.30;;;;;;5068160;28;20447;-71
2021/09/02 09:14:03;;;;;;;2.53;2.28;;;37.80;31.80;;;;;;5049189;28;20696;-71
2021/09/02 09:16:46;;;;;;;4.70;2.33;;;38.00;31.10;;;;;;5057134;28;20210;-71
2021/09/02 09:19:35;;;;;;;2.38;2.08;;;37.00;31.20;;;;;;5060538;28;20995;-71
2021/09/02 09:22:02;;;;;;;2.78;2.55;;;36.00;31.90;;;;;;5061223;28;20489;-74
2021/09/02 09:24:45;;;;;;;3.25;2.33;;;34.60;33.40;;;;;;5064819;28;20197;-78
2021/09/02 09:27:12;;;;;;;4.30;3.20;;;33.70;34.30;;;;;;5058641;28;20805;-77
2021/09/02 09:29:39;;;;;;;3.53;2.80;;;33.70;34.20;;;;;;5062598;28;20201;-78
2021/09/02 09:32:13;;;;;;;2.65;2.22;;;34.30;33.70;;;;;;5054750;28;20212;-77
2021/09/02 09:34:49;;;;;;;2.10;2.00;;;35.00;32.70;;;;;;5061408;28;20680;-77
2021/09/02 09:37:16;;;;;;;2.10;2.00;;;35.50;32.20;;;;;;5054965;28;20265;-77
2021/09/02 09:39:45;;;;;;;2.10;2.00;;;36.00;31.50;;;;;;5060167;28;20201;-77
2021/09/02 09:42:12;;;;;;;3.78;2.15;;;36.30;30.80;;;;;;5061229;28;20696;-78
2021/09/02 09:44:41;;;;;;;3.58;2.42;;;36.80;31.00;;;;;;5063039;28;20194;-78
2021/09/02 09:47:11;;;;;;;3.45;1.92;;;37.60;30.70;;;;;;5054152;28;20460;-78
2021/09/02 09:49:50;;;;;;;2.00;1.90;;;38.00;29.40;;;;;;5061580;28;20540;-76
2021/09/02 09:52:26;;;;;;;4.50;2.00;;;38.00;28.90;;;;;;5063148;28;20213;-77
2021/09/02 09:55:00;;;;;;;2.47;2.20;;;38.20;28.60;;;;;;5068273;28;20313;-78
2021/09/02 09:57:30;;;;;;;1.95;1.85;;;38.10;28.50;;;;;;5057542;28;20220;-77
2021/09/02 10:00:01;;;;;;;2.35;2.15;;;38.10;28.90;;;;;;5052507;28;20324;-77
2021/09/02 10:02:40;;;;;;;6.60;3.00;;;38.30;28.70;;;;;;5062029;28;20315;-78
2021/09/02 10:05:09;;;;;;;7.65;3.67;;;38.40;28.60;;;;;;5067902;28;20212;-74
2021/09/02 10:07:37;;;;;;;7.28;3.50;;;38.10;28.40;;;;;;5059674;28;20677;-71
2021/09/02 10:10:09;;;;;;;7.07;3.05;;;37.60;28.90;;;;;;5052935;28;20794;-71
2021/09/02 10:12:37;;;;;;;8.82;3.45;;;37.10;29.40;;;;;;5046959;28;20346;-71
2021/09/02 10:15:06;;;;;;;5.60;2.78;;;36.50;29.40;;;;;;5051389;28;20203;-71
2021/09/02 10:17:35;;;;;;;5.35;3.28;;;36.00;29.70;;;;;;5052663;28;20224;-71
2021/09/02 10:20:04;;;;;;;7.65;2.90;;;35.90;30.00;;;;;;5059160;28;20685;-72
2021/09/02 10:22:31;;;;;;;7.70;2.70;;;36.10;30.00;;;;;;5056024;28;20208;-73
2021/09/02 10:24:58;;;;;;;2.58;2.20;;;35.90;30.10;;;;;;5050108;28;20247;-72
2021/09/02 10:27:37;;;;;;;4.43;2.17;;;35.20;30.30;;;;;;5059399;28;20221;-72
2021/09/02 10:30:25;;;;;;;3.13;2.27;;;34.90;31.00;;;;;;5059652;28;20454;-74
2021/09/02 10:32:54;;;;;;;4.22;2.30;;;35.40;31.00;;;;;;5059422;28;20962;-74
2021/09/02 10:35:33;;;;;;;8.82;2.60;;;35.70;30.40;;;;;;5055675;28;20190;-74
2021/09/02 10:38:01;;;;;;;2.45;2.25;;;35.90;30.60;;;;;;5060162;28;20823;-75
2021/09/02 10:40:48;;;;;;;8.32;2.53;;;35.80;30.70;;;;;;5055523;28;20206;-75
2021/09/02 10:43:47;;;;;;;4.72;2.70;;;36.00;30.90;;;;;;5062763;28;20197;-74
2021/09/02 10:46:35;;;;;;;4.28;2.33;;;35.60;30.70;;;;;;5048507;28;20521;-74
2021/09/02 10:49:18;;;;;;;3.63;2.90;;;34.70;32.00;;;;;;5058847;28;20258;-74
2021/09/02 10:51:47;;;;;;;2.72;2.10;;;34.80;32.50;;;;;;5059230;28;20296;-75
2021/09/02 10:54:19;;;;;;;2.20;2.00;;;35.20;32.10;;;;;;5058342;28;20684;-75
2021/09/02 10:56:57;;;;;;;2.20;2.00;;;35.40;32.00;;;;;;5056025;28;20634;-75
2021/09/02 10:59:53;;;;;;;3.13;1.88;;;35.30;31.70;;;;;;5059152;28;20438;-75
2021/09/02 11:02:42;;;;;;;1.95;1.70;;;34.10;32.60;;;;;;5055903;28;20930;-76
2021/09/02 11:05:12;;;;;;;3.15;2.20;;;34.20;32.90;;;;;;5055799;28;20215;-75
2021/09/02 11:07:42;;;;;;;5.18;2.00;;;34.70;32.80;;;;;;5056459;28;20369;-75
2021/09/02 11:10:19;;;;;;;3.17;2.83;;;35.40;32.30;;;;;;5058003;28;20765;-72
2021/09/02 11:12:47;;;;;;;3.85;2.33;;;36.20;31.50;;;;;;5054959;28;20204;-72
2021/09/02 11:15:27;;;;;;;2.43;2.07;;;36.50;31.10;;;;;;5058281;28;20453;-72
2021/09/02 11:17:56;;;;;;;5.32;2.45;;;36.80;30.70;;;;;;5058089;28;20214;-73
2021/09/02 11:20:26;;;;;;;3.00;2.10;;;36.40;30.40;;;;;;5061666;28;20421;-72
2021/09/02 11:23:07;;;;;;;2.92;2.40;;;36.20;30.10;;;;;;5054285;28;20198;-72
2021/09/02 11:25:40;;;;;;;3.03;2.00;;;35.90;30.20;;;;;;5063452;28;20472;-72
2021/09/02 11:28:08;;;;;;;1.97;1.77;;;35.50;30.10;;;;;;5075041;28;20976;-71
2021/09/02 11:30:37;;;;;;;3.38;1.90;;;35.10;30.50;;;;;;5065154;28;20204;-72
2021/09/02 11:33:07;;;;;;;2.28;2.05;;;34.70;31.20;;;;;;5056099;28;20198;-72
2021/09/02 11:35:35;;;;;;;3.65;2.20;;;34.60;31.80;;;;;;5062847;28;20220;-72
2021/09/02 11:38:02;;;;;;;2.28;1.95;;;34.20;32.00;;;;;;5060375;28;20343;-72
2021/09/02 11:40:30;;;;;;;3.10;2.13;;;34.00;32.70;;;;;;5062830;28;20228;-71
2021/09/02 11:42:58;;;;;;;2.90;2.03;;;34.20;32.50;;;;;;5061856;28;20194;-72
2021/09/02 11:45:27;;;;;;;2.75;1.95;;;34.10;30.80;;;;;;5060409;28;20438;-73
2021/09/02 11:47:56;;;;;;;2.42;1.92;;;33.80;30.20;;;;;;5062384;28;20206;-72
2021/09/02 11:50:24;;;;;;;1.77;1.67;;;33.40;29.30;;;;;;5058338;28;20198;-72
2021/09/02 11:52:53;;;;;;;4.20;1.60;;;32.80;29.80;;;;;;5074071;28;20436;-73
2021/09/02 11:55:31;;;;;;;6.13;1.90;;;32.80;29.90;;;;;;5054439;28;20192;-72
2021/09/02 11:58:01;;;;;;;1.73;1.63;;;32.70;29.80;;;;;;5058482;28;20448;-72
2021/09/02 12:00:29;;;;;;;1.75;1.65;;;32.70;30.20;;;;;;5055190;28;20197;-72
2021/09/02 12:02:58;;;;;;;1.88;1.50;;;32.20;31.40;;;;;;5054383;28;20438;-72
2021/09/02 12:05:33;;;;;;;1.90;1.60;;;31.30;32.70;;;;;;5057229;28;20430;-72
2021/09/02 12:08:00;;;;;;;4.25;1.75;;;30.70;33.80;;;;;;5059080;28;20200;-72
2021/09/02 12:10:27;;;;;;;3.85;2.00;;;29.60;34.80;;;;;;5060466;28;20705;-72
2021/09/02 12:12:54;;;;;;;2.22;1.88;;;28.60;36.10;;;;;;5059630;28;20457;-71
2021/09/02 12:15:27;;;;;;;2.13;1.53;;;27.90;37.30;;;;;;5061615;28;20461;-72
2021/09/02 12:18:10;;;;;;;2.40;1.67;;;27.40;37.80;;;;;;5056676;28;20542;-75
2021/09/02 12:20:38;;;;;;;5.40;1.92;;;27.00;38.40;;;;;;5065033;28;20447;-72
2021/09/02 12:23:19;;;;;;;3.13;1.90;;;26.40;39.50;;;;;;5071608;28;20190;-76
2021/09/02 12:25:58;;;;;;;4.05;1.83;;;25.70;40.60;;;;;;5061575;28;20570;-75
2021/09/02 12:28:33;;;;;;;6.50;2.00;;;25.40;41.60;;;;;;5075871;28;20645;-75
2021/09/02 12:31:21;;;;;;;7.65;2.38;;;24.90;42.30;;;;;;5057658;28;20213;-75
2021/09/02 12:34:05;;;;;;;6.63;2.45;;;24.40;43.40;;;;;;5060782;28;20287;-75
2021/09/02 12:36:34;;;;;;;6.22;1.88;;;24.00;44.90;;;;;;5055318;28;20492;-74
2021/09/02 12:39:20;;;;;;;5.22;2.17;;;23.60;46.00;;;;;;5059782;28;20247;-74
2021/09/02 12:41:48;;;;;;;8.88;2.17;;;23.30;47.90;;;;;;5055403;28;20209;-74
2021/09/02 12:44:23;;;;;;;5.82;2.63;;;23.10;48.50;;;;;;5054653;28;20205;-74
2021/09/02 12:46:54;;;;;;;4.82;2.65;;;22.80;49.30;;;;;;5072121;28;20755;-73
2021/09/02 12:49:24;;;;;;;5.25;2.65;;;22.50;49.80;;;;;;5062957;28;20272;-75
2021/09/02 12:52:06;;;;;;;8.07;2.45;;;22.30;49.90;;;;;;5070992;28;20236;-75
2021/09/02 12:55:03;;;;;;;3.65;2.05;;;22.30;50.30;;;;;;5058292;28;20266;-75
2021/09/02 12:57:32;;;;;;;2.05;1.48;;;22.20;49.80;;;;;;5062250;28;20221;-76